createdAt,value
2023-06-07T00:00:43.083Z,2.11
2023-06-07T00:01:43.131Z,1.72
2023-06-07T00:02:44.686Z,1.56
2023-06-07T00:03:43.261Z,1.89
2023-06-07T00:04:43.316Z,1.82
2023-06-07T00:05:43.166Z,2.09
2023-06-07T00:06:43.263Z,1.80
2023-06-07T00:07:43.295Z,1.89
2023-06-07T00:08:43.277Z,1.86
2023-06-07T00:09:43.288Z,1.80
2023-06-07T00:10:43.315Z,2.05
2023-06-07T00:11:43.300Z,1.83
2023-06-07T00:12:43.494Z,1.80
2023-06-07T00:13:43.523Z,2.01
2023-06-07T00:14:43.538Z,1.74
2023-06-07T00:15:43.546Z,1.78
2023-06-07T00:16:43.531Z,1.91
2023-06-07T00:17:43.621Z,1.78
2023-06-07T00:18:43.539Z,1.67
2023-06-07T00:19:43.560Z,1.93
2023-06-07T00:20:43.565Z,1.89
2023-06-07T00:21:43.573Z,2.10
2023-06-07T00:22:43.587Z,2.10
2023-06-07T00:23:43.630Z,1.92
2023-06-07T00:24:43.709Z,1.59
2023-06-07T00:25:44.038Z,1.96
2023-06-07T00:26:43.890Z,1.64
2023-06-07T00:27:43.976Z,1.86
2023-06-07T00:28:44.093Z,2.07
2023-06-07T00:29:44.207Z,1.99
2023-06-07T00:30:44.335Z,1.75
2023-06-07T00:31:44.327Z,1.87
2023-06-07T00:32:44.386Z,1.74
2023-06-07T00:33:44.339Z,1.84
2023-06-07T00:34:44.297Z,1.87
2023-06-07T00:35:44.365Z,1.69
2023-06-07T00:36:44.359Z,1.54
2023-06-07T00:37:44.372Z,1.69
2023-06-07T00:38:44.373Z,1.99
2023-06-07T00:39:44.416Z,2.06
2023-06-07T00:40:44.426Z,1.52
2023-06-07T00:41:44.418Z,2.00
2023-06-07T00:42:44.505Z,1.76
2023-06-07T00:43:44.465Z,2.03
2023-06-07T00:44:44.467Z,2.04
2023-06-07T00:45:44.472Z,2.15
2023-06-07T00:46:44.474Z,1.86
2023-06-07T00:47:44.570Z,1.91
2023-06-07T00:48:44.629Z,1.89
2023-06-07T00:49:44.538Z,1.85
2023-06-07T00:50:44.563Z,2.37
2023-06-07T00:51:44.591Z,1.49
2023-06-07T00:52:44.624Z,1.75
2023-06-07T00:53:44.635Z,1.85
2023-06-07T00:54:44.608Z,1.93
2023-06-07T00:55:44.687Z,1.76
2023-06-07T00:56:44.665Z,1.65
2023-06-07T00:57:44.714Z,1.50
2023-06-07T00:58:44.705Z,2.42
2023-06-07T00:59:44.718Z,1.95
2023-06-07T01:00:44.737Z,1.68
2023-06-07T01:01:44.816Z,1.84
2023-06-07T01:02:44.879Z,1.61
2023-06-07T01:03:44.882Z,1.76
2023-06-07T01:04:44.817Z,1.61
2023-06-07T01:05:44.867Z,1.59
2023-06-07T01:06:44.906Z,1.89
2023-06-07T01:07:44.927Z,1.95
2023-06-07T01:08:44.948Z,1.79
2023-06-07T01:09:44.997Z,1.98
2023-06-07T01:10:44.992Z,1.68
2023-06-07T01:11:45.002Z,1.66
2023-06-07T01:12:45.033Z,1.60
2023-06-07T01:13:45.046Z,1.62
2023-06-07T01:14:45.086Z,1.80
2023-06-07T01:15:45.089Z,1.78
2023-06-07T01:16:45.180Z,1.50
2023-06-07T01:17:45.166Z,1.32
2023-06-07T01:18:45.176Z,2.04
2023-06-07T01:19:45.152Z,1.39
2023-06-07T01:20:45.214Z,1.66
2023-06-07T01:21:45.337Z,1.71
2023-06-07T01:22:45.245Z,1.67
2023-06-07T01:23:45.351Z,1.91
2023-06-07T01:24:45.301Z,1.81
2023-06-07T01:25:45.287Z,1.67
2023-06-07T01:26:45.319Z,1.50
2023-06-07T01:27:45.348Z,1.85
2023-06-07T01:28:45.362Z,1.99
2023-06-07T01:29:45.391Z,2.32
2023-06-07T01:30:45.405Z,1.69
2023-06-07T01:31:45.487Z,1.58
2023-06-07T01:32:45.512Z,1.89
2023-06-07T01:33:45.478Z,1.66
2023-06-07T01:34:45.558Z,1.88
2023-06-07T01:35:45.538Z,1.98
2023-06-07T01:36:45.584Z,1.76
2023-06-07T01:37:45.536Z,1.87
2023-06-07T01:38:45.587Z,1.95
2023-06-07T01:39:45.604Z,1.82
2023-06-07T01:40:45.640Z,1.79
2023-06-07T01:41:45.681Z,1.86
2023-06-07T01:42:45.712Z,1.82
2023-06-07T01:43:45.755Z,1.68
2023-06-07T01:44:45.780Z,1.79
2023-06-07T01:45:45.812Z,1.87
2023-06-07T01:46:45.801Z,1.89
2023-06-07T01:47:45.907Z,2.02
2023-06-07T01:48:45.869Z,2.13
2023-06-07T01:49:46.194Z,2.07
2023-06-07T01:50:45.896Z,1.44
2023-06-07T01:51:45.990Z,1.65
2023-06-07T01:52:45.991Z,1.68
2023-06-07T01:53:46.029Z,1.83
2023-06-07T01:54:46.057Z,1.84
2023-06-07T01:55:46.056Z,1.55
2023-06-07T01:56:46.133Z,2.08
2023-06-07T01:57:46.137Z,1.74
2023-06-07T01:58:46.163Z,1.91
2023-06-07T01:59:46.192Z,2.02
2023-06-07T02:00:46.254Z,1.81
2023-06-07T02:01:46.287Z,1.75
2023-06-07T02:02:46.366Z,1.44
2023-06-07T02:03:46.365Z,1.46
2023-06-07T02:04:46.393Z,1.90
2023-06-07T02:05:46.386Z,2.01
2023-06-07T02:06:46.403Z,2.02
2023-06-07T02:07:46.439Z,1.95
2023-06-07T02:08:46.506Z,1.77
2023-06-07T02:09:46.527Z,1.95
2023-06-07T02:10:46.523Z,1.52
2023-06-07T02:11:46.584Z,1.73
2023-06-07T02:12:46.595Z,1.79
2023-06-07T02:13:46.632Z,1.53
2023-06-07T02:14:46.631Z,1.83
2023-06-07T02:15:47.002Z,1.52
2023-06-07T02:16:46.754Z,1.71
2023-06-07T02:17:46.811Z,1.49
2023-06-07T02:18:46.781Z,1.92
2023-06-07T02:19:46.839Z,2.12
2023-06-07T02:20:46.838Z,1.82
2023-06-07T02:21:46.916Z,1.67
2023-06-07T02:22:46.897Z,1.40
2023-06-07T02:23:47.269Z,1.86
2023-06-07T02:24:46.968Z,1.77
2023-06-07T02:25:47.032Z,1.83
2023-06-07T02:26:47.075Z,1.70
2023-06-07T02:27:47.054Z,1.90
2023-06-07T02:28:47.082Z,1.70
2023-06-07T02:29:47.142Z,1.68
2023-06-07T02:30:47.151Z,1.57
2023-06-07T02:31:47.472Z,1.59
2023-06-07T02:32:47.241Z,1.62
2023-06-07T02:33:47.308Z,1.83
2023-06-07T02:34:47.300Z,2.02
2023-06-07T02:35:47.319Z,1.80
2023-06-07T02:36:47.404Z,1.40
2023-06-07T02:37:47.360Z,1.83
2023-06-07T02:38:47.442Z,1.48
2023-06-07T02:39:47.504Z,1.61
2023-06-07T02:40:47.504Z,1.73
2023-06-07T02:41:47.484Z,1.68
2023-06-07T02:42:47.562Z,1.68
2023-06-07T02:43:47.578Z,1.74
2023-06-07T02:44:47.576Z,1.77
2023-06-07T02:45:47.626Z,1.51
2023-06-07T02:46:47.671Z,1.82
2023-06-07T02:47:47.757Z,1.59
2023-06-07T02:48:47.752Z,1.80
2023-06-07T02:49:47.766Z,1.87
2023-06-07T02:50:47.760Z,1.74
2023-06-07T02:51:47.785Z,1.86
2023-06-07T02:52:47.858Z,1.62
2023-06-07T02:53:47.886Z,1.58
2023-06-07T02:54:47.913Z,2.21
2023-06-07T02:55:47.937Z,1.64
2023-06-07T02:56:47.995Z,1.65
2023-06-07T02:57:48.000Z,1.76
2023-06-07T02:58:48.054Z,1.51
2023-06-07T02:59:48.082Z,1.89
2023-06-07T03:00:48.168Z,1.47
2023-06-07T03:01:48.148Z,1.62
2023-06-07T03:02:48.322Z,1.64
2023-06-07T03:03:48.295Z,1.88
2023-06-07T03:04:48.267Z,1.57
2023-06-07T03:05:48.259Z,1.67
2023-06-07T03:06:48.340Z,1.91
2023-06-07T03:07:48.348Z,1.53
2023-06-07T03:08:48.371Z,1.62
2023-06-07T03:09:48.388Z,1.62
2023-06-07T03:10:48.454Z,1.75
2023-06-07T03:11:48.490Z,1.79
2023-06-07T03:12:48.534Z,1.60
2023-06-07T03:13:48.572Z,1.56
2023-06-07T03:14:49.140Z,1.65
2023-06-07T03:15:48.705Z,1.68
2023-06-07T03:16:48.659Z,1.56
2023-06-07T03:17:48.818Z,1.74
2023-06-07T03:18:48.727Z,1.16
2023-06-07T03:19:48.838Z,1.78
2023-06-07T03:20:48.988Z,1.47
2023-06-07T03:21:48.910Z,1.60
2023-06-07T03:22:48.892Z,1.49
2023-06-07T03:23:49.036Z,2.10
2023-06-07T03:24:49.017Z,1.34
2023-06-07T03:25:49.069Z,2.05
2023-06-07T03:26:49.076Z,1.77
2023-06-07T03:27:49.109Z,1.90
2023-06-07T03:28:49.134Z,1.85
2023-06-07T03:29:49.190Z,2.08
2023-06-07T03:30:49.279Z,1.43
2023-06-07T03:31:49.240Z,1.77
2023-06-07T03:32:49.328Z,2.14
2023-06-07T03:33:49.353Z,2.01
2023-06-07T03:34:49.430Z,1.52
2023-06-07T03:35:49.445Z,1.37
2023-06-07T03:36:49.419Z,2.08
2023-06-07T03:37:49.531Z,1.74
2023-06-07T03:38:49.576Z,1.51
2023-06-07T03:39:49.591Z,1.70
2023-06-07T03:40:49.615Z,1.71
2023-06-07T03:41:49.640Z,1.98
2023-06-07T03:42:49.663Z,1.74
2023-06-07T03:43:49.717Z,1.66
2023-06-07T03:44:49.728Z,1.56
2023-06-07T03:45:49.816Z,1.79
2023-06-07T03:46:49.824Z,1.90
2023-06-07T03:47:49.941Z,1.71
2023-06-07T03:48:52.777Z,1.55
2023-06-07T03:49:49.875Z,1.74
2023-06-07T03:50:49.875Z,1.94
2023-06-07T03:51:49.889Z,1.78
2023-06-07T03:52:49.880Z,1.50
2023-06-07T03:53:49.831Z,1.69
2023-06-07T03:54:49.873Z,1.67
2023-06-07T03:55:49.845Z,1.75
2023-06-07T03:56:49.812Z,1.42
2023-06-07T03:57:49.821Z,1.37
2023-06-07T03:58:49.802Z,1.60
2023-06-07T03:59:49.807Z,1.78
2023-06-07T04:00:49.805Z,1.71
2023-06-07T04:01:49.770Z,1.43
2023-06-07T04:02:49.845Z,1.79
2023-06-07T04:03:49.919Z,1.47
2023-06-07T04:04:50.690Z,1.76
2023-06-07T04:05:49.753Z,1.59
2023-06-07T04:06:49.793Z,1.23
2023-06-07T04:07:50.190Z,1.84
2023-06-07T04:08:49.735Z,2.24
2023-06-07T04:09:49.735Z,1.79
2023-06-07T04:10:49.768Z,1.78
2023-06-07T04:11:49.719Z,1.98
2023-06-07T04:12:49.737Z,1.93
2023-06-07T04:13:49.687Z,1.75
2023-06-07T04:14:49.714Z,1.97
2023-06-07T04:15:49.702Z,2.14
2023-06-07T04:16:49.761Z,2.05
2023-06-07T04:17:49.755Z,1.75
2023-06-07T04:18:49.698Z,2.48
2023-06-07T04:19:51.780Z,2.44
2023-06-07T04:20:49.678Z,1.94
2023-06-07T04:21:49.640Z,2.27
2023-06-07T04:22:49.678Z,1.90
2023-06-07T04:23:49.720Z,2.18
2023-06-07T04:24:49.633Z,2.05
2023-06-07T04:25:49.648Z,2.14
2023-06-07T04:26:49.819Z,2.07
2023-06-07T04:27:49.717Z,1.90
2023-06-07T04:28:49.731Z,2.47
2023-06-07T04:29:49.735Z,2.42
2023-06-07T04:30:49.838Z,2.26
2023-06-07T04:31:49.877Z,2.13
2023-06-07T04:32:49.902Z,2.22
2023-06-07T04:33:49.890Z,2.42
2023-06-07T04:34:49.912Z,1.97
2023-06-07T04:35:49.936Z,2.23
2023-06-07T04:36:49.943Z,2.15
2023-06-07T04:37:49.998Z,1.98
2023-06-07T04:38:58.454Z,2.15
2023-06-07T04:39:51.018Z,1.95
2023-06-07T04:40:49.987Z,1.78
2023-06-07T04:41:50.049Z,2.31
2023-06-07T04:42:50.005Z,1.46
2023-06-07T04:43:50.001Z,2.05
2023-06-07T04:44:49.974Z,1.94
2023-06-07T04:45:50.003Z,2.16
2023-06-07T04:46:49.954Z,1.96
2023-06-07T04:47:49.981Z,1.59
2023-06-07T04:48:49.978Z,1.88
2023-06-07T04:49:49.957Z,2.12
2023-06-07T04:50:49.957Z,1.98
2023-06-07T04:51:50.002Z,1.83
2023-06-07T04:52:49.954Z,2.18
2023-06-07T04:53:49.922Z,1.83
2023-06-07T04:54:49.911Z,2.14
2023-06-07T04:55:49.883Z,1.89
2023-06-07T04:56:49.866Z,2.36
2023-06-07T04:57:49.907Z,1.81
2023-06-07T04:58:49.893Z,1.82
2023-06-07T04:59:50.018Z,1.72
2023-06-07T05:00:49.934Z,2.04
2023-06-07T05:01:49.965Z,1.60
2023-06-07T05:02:50.215Z,2.28
2023-06-07T05:03:50.108Z,1.92
2023-06-07T05:04:50.708Z,2.12
2023-06-07T05:05:50.243Z,1.85
2023-06-07T05:06:50.223Z,2.05
2023-06-07T05:07:50.272Z,1.88
2023-06-07T05:08:50.306Z,2.08
2023-06-07T05:09:50.423Z,1.84
2023-06-07T05:10:50.412Z,2.04
2023-06-07T05:11:50.570Z,1.79
2023-06-07T05:12:50.485Z,1.90
2023-06-07T05:13:50.628Z,1.79
2023-06-07T05:14:50.660Z,1.95
2023-06-07T05:15:50.733Z,1.74
2023-06-07T05:16:50.761Z,1.88
2023-06-07T05:17:50.888Z,1.54
2023-06-07T05:18:50.869Z,2.09
2023-06-07T05:19:50.944Z,1.85
2023-06-07T05:20:50.985Z,1.97
2023-06-07T05:21:51.024Z,1.90
2023-06-07T05:22:51.080Z,1.83
2023-06-07T05:23:51.195Z,1.86
2023-06-07T05:24:51.140Z,1.92
2023-06-07T05:25:51.194Z,2.10
2023-06-07T05:26:51.249Z,2.30
2023-06-07T05:28:03.680Z,1.84
2023-06-07T05:28:52.275Z,1.80
2023-06-07T05:29:51.254Z,2.03
2023-06-07T05:30:51.377Z,2.53
2023-06-07T05:31:51.248Z,2.11
2023-06-07T05:32:51.269Z,2.52
2023-06-07T05:33:51.196Z,2.75
2023-06-07T05:34:51.196Z,1.99
2023-06-07T05:35:51.202Z,2.85
2023-06-07T05:36:51.207Z,2.75
2023-06-07T05:37:51.199Z,3.42
2023-06-07T05:38:51.225Z,3.30
2023-06-07T05:39:51.285Z,3.49
2023-06-07T05:40:51.142Z,3.44
2023-06-07T05:41:51.249Z,4.18
2023-06-07T05:42:51.240Z,3.94
2023-06-07T05:43:51.302Z,4.46
2023-06-07T05:44:51.354Z,3.52
2023-06-07T05:45:51.379Z,3.36
2023-06-07T05:46:51.518Z,3.72
2023-06-07T05:47:51.592Z,3.80
2023-06-07T05:48:51.639Z,3.22
2023-06-07T05:49:51.608Z,3.69
2023-06-07T05:50:51.710Z,3.44
2023-06-07T05:51:51.686Z,3.76
2023-06-07T05:52:51.785Z,3.55
2023-06-07T05:53:51.838Z,3.39
2023-06-07T05:54:51.819Z,3.14
2023-06-07T05:55:51.858Z,2.89
2023-06-07T05:56:54.284Z,3.37
2023-06-07T05:57:52.056Z,3.05
2023-06-07T05:58:52.054Z,3.16
2023-06-07T05:59:52.109Z,3.28
2023-06-07T06:00:52.116Z,3.50
2023-06-07T06:01:52.186Z,2.90
2023-06-07T06:02:52.275Z,2.69
2023-06-07T06:03:52.215Z,3.08
2023-06-07T06:04:52.280Z,3.06
2023-06-07T06:05:52.310Z,2.87
2023-06-07T06:06:52.761Z,3.07
2023-06-07T06:07:52.316Z,2.68
2023-06-07T06:08:52.362Z,2.73
2023-06-07T06:09:52.380Z,2.81
2023-06-07T06:10:52.425Z,3.09
2023-06-07T06:11:52.431Z,2.88
2023-06-07T06:12:52.481Z,2.87
2023-06-07T06:13:52.495Z,3.41
2023-06-07T06:14:52.787Z,3.68
2023-06-07T06:15:52.590Z,2.50
2023-06-07T06:16:52.562Z,2.96
2023-06-07T06:17:52.787Z,3.04
2023-06-07T06:18:52.611Z,3.24
2023-06-07T06:19:52.675Z,3.05
2023-06-07T06:20:52.623Z,3.22
2023-06-07T06:21:52.665Z,2.77
2023-06-07T06:22:52.704Z,2.43
2023-06-07T06:23:54.336Z,3.06
2023-06-07T06:24:52.764Z,3.01
2023-06-07T06:25:52.765Z,2.71
2023-06-07T06:26:52.774Z,2.96
2023-06-07T06:27:53.247Z,3.33
2023-06-07T06:28:53.257Z,3.21
2023-06-07T06:29:53.848Z,2.63
2023-06-07T06:30:53.030Z,2.54
2023-06-07T06:31:52.938Z,3.22
2023-06-07T06:32:53.642Z,2.74
2023-06-07T06:33:52.983Z,2.65
2023-06-07T06:34:52.993Z,2.84
2023-06-07T06:35:53.105Z,3.73
2023-06-07T06:36:53.054Z,3.15
2023-06-07T06:37:53.184Z,3.33
2023-06-07T06:38:53.124Z,2.69
2023-06-07T06:39:53.208Z,3.25
2023-06-07T06:40:53.226Z,3.15
2023-06-07T06:41:53.136Z,3.63
2023-06-07T06:42:53.179Z,3.74
2023-06-07T06:43:53.247Z,3.49
2023-06-07T06:44:53.258Z,3.75
2023-06-07T06:45:53.249Z,3.00
2023-06-07T06:46:53.741Z,3.66
2023-06-07T06:47:53.344Z,3.60
2023-06-07T06:49:03.084Z,3.01
2023-06-07T06:49:54.381Z,3.65
2023-06-07T06:50:53.381Z,3.20
2023-06-07T06:51:53.278Z,3.53
2023-06-07T06:52:53.293Z,2.79
2023-06-07T06:53:53.297Z,3.03
2023-06-07T06:54:53.263Z,2.82
2023-06-07T06:55:53.250Z,3.09
2023-06-07T06:56:53.761Z,2.85
2023-06-07T06:57:53.250Z,2.97
2023-06-07T06:58:53.229Z,2.83
2023-06-07T06:59:53.245Z,2.60
2023-06-07T07:00:53.245Z,3.47
2023-06-07T07:01:53.425Z,3.65
2023-06-07T07:02:53.306Z,3.27
2023-06-07T07:03:53.315Z,2.99
2023-06-07T07:04:53.221Z,3.17
2023-06-07T07:05:53.203Z,3.03
2023-06-07T07:06:53.374Z,3.28
2023-06-07T07:07:53.171Z,2.83
2023-06-07T07:08:53.455Z,3.10
2023-06-07T07:09:53.165Z,3.28
2023-06-07T07:10:53.196Z,3.05
2023-06-07T07:11:53.395Z,2.90
2023-06-07T07:12:53.332Z,2.96
2023-06-07T07:13:53.124Z,2.72
2023-06-07T07:14:53.204Z,3.17
2023-06-07T07:15:53.132Z,2.91
2023-06-07T07:16:53.132Z,2.80
2023-06-07T07:17:53.149Z,3.11
2023-06-07T07:18:53.137Z,3.15
2023-06-07T07:19:53.098Z,2.61
2023-06-07T07:20:53.136Z,3.20
2023-06-07T07:21:53.208Z,2.93
2023-06-07T07:22:53.120Z,3.00
2023-06-07T07:23:53.165Z,2.63
2023-06-07T07:24:53.306Z,2.78
2023-06-07T07:25:53.114Z,2.82
2023-06-07T07:26:53.147Z,2.94
2023-06-07T07:27:53.125Z,2.86
2023-06-07T07:28:53.205Z,3.07
2023-06-07T07:29:53.183Z,3.23
2023-06-07T07:30:53.679Z,2.70
2023-06-07T07:31:53.258Z,3.22
2023-06-07T07:32:53.322Z,2.52
2023-06-07T07:33:53.308Z,2.59
2023-06-07T07:34:53.455Z,2.69
2023-06-07T07:35:53.407Z,3.04
2023-06-07T07:36:53.712Z,3.76
2023-06-07T07:37:53.481Z,3.22
2023-06-07T07:38:53.475Z,3.35
2023-06-07T07:39:53.583Z,3.04
2023-06-07T07:40:53.520Z,2.98
2023-06-07T07:41:53.547Z,2.73
2023-06-07T07:42:53.518Z,3.75
2023-06-07T07:43:53.511Z,3.06
2023-06-07T07:44:53.526Z,3.37
2023-06-07T07:45:53.528Z,2.81
2023-06-07T07:46:53.534Z,2.88
2023-06-07T07:47:53.658Z,3.49
2023-06-07T07:48:53.578Z,3.73
2023-06-07T07:49:53.636Z,2.94
2023-06-07T07:50:53.581Z,3.32
2023-06-07T07:51:56.318Z,3.52
2023-06-07T07:52:53.612Z,3.64
2023-06-07T07:53:53.675Z,3.67
2023-06-07T07:54:53.776Z,3.66
2023-06-07T07:55:53.570Z,3.51
2023-06-07T07:56:53.571Z,3.31
2023-06-07T07:57:53.698Z,4.00
2023-06-07T07:58:53.536Z,3.30
2023-06-07T07:59:53.590Z,3.90
2023-06-07T08:00:53.573Z,3.96
2023-06-07T08:01:53.562Z,3.66
2023-06-07T08:02:53.606Z,3.50
2023-06-07T08:03:53.677Z,3.92
2023-06-07T08:04:53.561Z,3.78
2023-06-07T08:05:53.549Z,3.82
2023-06-07T08:06:53.515Z,3.58
2023-06-07T08:07:53.520Z,3.27
2023-06-07T08:08:53.493Z,3.71
2023-06-07T08:09:53.492Z,4.36
2023-06-07T08:10:53.483Z,4.28
2023-06-07T08:11:53.504Z,3.72
2023-06-07T08:12:53.456Z,3.64
2023-06-07T08:13:53.462Z,3.55
2023-06-07T08:14:53.429Z,3.76
2023-06-07T08:15:53.467Z,3.90
2023-06-07T08:16:53.483Z,3.56
2023-06-07T08:17:53.458Z,3.54
2023-06-07T08:18:53.469Z,4.01
2023-06-07T08:19:53.396Z,3.78
2023-06-07T08:20:53.406Z,4.23
2023-06-07T08:21:53.401Z,3.83
2023-06-07T08:22:53.371Z,3.43
2023-06-07T08:23:53.436Z,4.11
2023-06-07T08:24:53.440Z,3.85
2023-06-07T08:25:53.406Z,4.06
2023-06-07T08:26:53.417Z,3.59
2023-06-07T08:27:53.394Z,4.23
2023-06-07T08:28:53.392Z,3.34
2023-06-07T08:29:53.395Z,4.53
2023-06-07T08:30:53.385Z,3.41
2023-06-07T08:31:53.449Z,4.11
2023-06-07T08:32:53.384Z,3.80
2023-06-07T08:33:53.319Z,3.89
2023-06-07T08:34:53.365Z,3.83
2023-06-07T08:35:53.420Z,3.26
2023-06-07T08:36:53.336Z,3.28
2023-06-07T08:37:53.314Z,3.36
2023-06-07T08:38:53.312Z,3.85
2023-06-07T08:39:53.298Z,3.79
2023-06-07T08:40:53.276Z,3.78
2023-06-07T08:41:53.292Z,3.08
2023-06-07T08:42:53.344Z,4.27
2023-06-07T08:43:53.281Z,3.39
2023-06-07T08:44:53.308Z,4.10
2023-06-07T08:45:53.337Z,4.22
2023-06-07T08:46:53.234Z,4.07
2023-06-07T08:47:53.322Z,4.46
2023-06-07T08:48:53.751Z,4.31
2023-06-07T08:49:53.219Z,3.73
2023-06-07T08:50:53.220Z,3.59
2023-06-07T08:52:03.116Z,3.59
2023-06-07T08:52:54.202Z,3.61
2023-06-07T08:53:53.217Z,3.59
2023-06-07T08:54:53.221Z,4.22
2023-06-07T08:55:53.252Z,3.95
2023-06-07T08:56:53.249Z,3.37
2023-06-07T08:57:53.164Z,3.32
2023-06-07T08:58:53.179Z,3.65
2023-06-07T08:59:53.196Z,3.59
2023-06-07T09:00:53.245Z,3.28
2023-06-07T09:01:53.313Z,3.56
2023-06-07T09:02:53.406Z,3.37
2023-06-07T09:03:53.485Z,4.00
2023-06-07T09:04:53.462Z,3.59
2023-06-07T09:05:53.497Z,3.48
2023-06-07T09:06:53.585Z,3.47
2023-06-07T09:07:53.636Z,3.44
2023-06-07T09:08:53.688Z,4.21
2023-06-07T09:09:53.727Z,3.02
2023-06-07T09:10:53.771Z,3.84
2023-06-07T09:11:53.871Z,3.45
2023-06-07T09:12:53.912Z,3.45
2023-06-07T09:13:53.900Z,4.03
2023-06-07T09:14:53.957Z,3.37
2023-06-07T09:15:54.058Z,3.21
2023-06-07T09:16:54.168Z,3.38
2023-06-07T09:17:54.190Z,4.05
2023-06-07T09:18:54.203Z,3.53
2023-06-07T09:19:54.225Z,2.99
2023-06-07T09:20:54.205Z,2.91
2023-06-07T09:21:54.262Z,2.87
2023-06-07T09:22:54.307Z,3.13
2023-06-07T09:23:54.454Z,3.48
2023-06-07T09:24:54.427Z,3.26
2023-06-07T09:25:54.493Z,3.03
2023-06-07T09:26:54.484Z,3.68
2023-06-07T09:27:54.500Z,3.58
2023-06-07T09:28:54.541Z,2.92
2023-06-07T09:29:54.651Z,3.19
2023-06-07T09:30:54.935Z,3.64
2023-06-07T09:31:54.974Z,3.56
2023-06-07T09:32:54.690Z,3.57
2023-06-07T09:33:54.829Z,3.04
2023-06-07T09:34:54.746Z,3.06
2023-06-07T09:35:54.783Z,3.27
2023-06-07T09:36:54.938Z,3.46
2023-06-07T09:37:54.890Z,3.08
2023-06-07T09:38:54.889Z,3.80
2023-06-07T09:39:54.929Z,3.00
2023-06-07T09:40:54.978Z,3.27
2023-06-07T09:41:55.009Z,3.27
2023-06-07T09:42:54.997Z,3.12
2023-06-07T09:43:54.985Z,3.22
2023-06-07T09:44:55.000Z,2.91
2023-06-07T09:45:54.985Z,2.96
2023-06-07T09:46:55.030Z,3.31
2023-06-07T09:47:55.045Z,2.56
2023-06-07T09:48:55.207Z,3.24
2023-06-07T09:49:55.056Z,2.49
2023-06-07T09:50:55.037Z,3.02
2023-06-07T09:51:55.096Z,3.47
2023-06-07T09:52:55.093Z,3.51
2023-06-07T09:53:55.356Z,3.07
2023-06-07T09:54:55.062Z,2.76
2023-06-07T09:55:55.097Z,2.97
2023-06-07T09:56:55.146Z,2.57
2023-06-07T09:57:55.131Z,2.84
2023-06-07T09:58:55.131Z,2.62
2023-06-07T09:59:55.091Z,3.26
2023-06-07T10:00:55.106Z,2.48
2023-06-07T10:01:55.189Z,2.94
2023-06-07T10:02:55.169Z,3.29
2023-06-07T10:03:55.104Z,3.07
2023-06-07T10:04:57.362Z,3.29
2023-06-07T10:05:55.122Z,2.87
2023-06-07T10:06:55.065Z,2.59
2023-06-07T10:07:55.348Z,3.08
2023-06-07T10:08:55.043Z,3.38
2023-06-07T10:09:55.088Z,2.82
2023-06-07T10:10:55.077Z,3.10
2023-06-07T10:11:55.059Z,3.19
2023-06-07T10:12:55.233Z,2.58
2023-06-07T10:13:55.093Z,3.10
2023-06-07T10:14:55.067Z,2.88
2023-06-07T10:15:55.025Z,2.62
2023-06-07T10:16:55.076Z,2.80
2023-06-07T10:17:55.047Z,2.61
2023-06-07T10:18:54.975Z,3.12
2023-06-07T10:19:55.073Z,2.53
2023-06-07T10:20:55.069Z,3.39
2023-06-07T10:21:55.016Z,2.74
2023-06-07T10:22:55.315Z,3.19
2023-06-07T10:23:55.076Z,2.73
2023-06-07T10:24:55.103Z,3.41
2023-06-07T10:25:54.972Z,2.95
2023-06-07T10:26:54.983Z,3.42
2023-06-07T10:27:55.009Z,2.64
2023-06-07T10:28:54.988Z,2.60
2023-06-07T10:29:54.923Z,3.51
2023-06-07T10:30:54.948Z,3.55
2023-06-07T10:31:55.394Z,3.51
2023-06-07T10:32:55.459Z,4.34
2023-06-07T10:33:55.009Z,4.39
2023-06-07T10:34:54.967Z,4.33
2023-06-07T10:35:54.907Z,4.46
2023-06-07T10:36:54.877Z,3.55
2023-06-07T10:37:55.358Z,3.86
2023-06-07T10:38:54.941Z,4.11
2023-06-07T10:39:54.848Z,3.88
2023-06-07T10:40:54.850Z,3.85
2023-06-07T10:41:54.930Z,3.60
2023-06-07T10:42:54.886Z,3.89
2023-06-07T10:43:54.854Z,3.09
2023-06-07T10:44:54.836Z,4.01
2023-06-07T10:45:55.016Z,3.97
2023-06-07T10:46:54.967Z,3.56
2023-06-07T10:47:54.958Z,3.56
2023-06-07T10:48:54.960Z,3.66
2023-06-07T10:49:54.989Z,3.74
2023-06-07T10:50:55.076Z,3.71
2023-06-07T10:51:54.973Z,3.31
2023-06-07T10:52:54.985Z,3.44
2023-06-07T10:53:55.029Z,3.42
2023-06-07T10:54:55.100Z,3.33
2023-06-07T10:55:55.109Z,3.26
2023-06-07T10:56:55.124Z,3.25
2023-06-07T10:57:55.144Z,3.56
2023-06-07T10:58:55.154Z,3.18
2023-06-07T10:59:55.135Z,3.48
2023-06-07T11:00:55.398Z,3.19
2023-06-07T11:01:55.273Z,3.58
2023-06-07T11:02:55.360Z,3.36
2023-06-07T11:03:55.454Z,3.26
2023-06-07T11:04:55.344Z,3.94
2023-06-07T11:05:55.494Z,3.19
2023-06-07T11:06:55.341Z,3.40
2023-06-07T11:07:55.401Z,3.45
2023-06-07T11:08:55.662Z,3.28
2023-06-07T11:09:55.401Z,3.53
2023-06-07T11:10:55.370Z,3.71
2023-06-07T11:11:55.340Z,2.79
2023-06-07T11:12:55.464Z,3.07
2023-06-07T11:13:55.421Z,3.67
2023-06-07T11:14:55.525Z,3.20
2023-06-07T11:15:55.507Z,3.15
2023-06-07T11:16:55.527Z,3.42
2023-06-07T11:17:55.578Z,2.80
2023-06-07T11:18:55.458Z,3.00
2023-06-07T11:19:55.591Z,3.32
2023-06-07T11:20:55.547Z,3.15
2023-06-07T11:21:55.593Z,3.65
2023-06-07T11:22:55.560Z,3.47
2023-06-07T11:23:55.661Z,2.52
2023-06-07T11:24:55.565Z,3.17
2023-06-07T11:25:55.681Z,3.35
2023-06-07T11:26:55.647Z,2.85
2023-06-07T11:27:55.703Z,3.06
2023-06-07T11:28:55.693Z,3.40
2023-06-07T11:29:55.712Z,3.15
2023-06-07T11:30:56.551Z,3.30
2023-06-07T11:31:55.810Z,3.13
2023-06-07T11:32:55.765Z,3.12
2023-06-07T11:33:56.392Z,2.86
2023-06-07T11:34:55.883Z,2.76
2023-06-07T11:35:55.867Z,2.66
2023-06-07T11:36:55.856Z,3.06
2023-06-07T11:37:55.877Z,2.62
2023-06-07T11:38:55.912Z,3.23
2023-06-07T11:39:55.931Z,3.13
2023-06-07T11:40:55.913Z,3.51
2023-06-07T11:41:56.035Z,3.00
2023-06-07T11:42:55.992Z,2.92
2023-06-07T11:43:56.007Z,3.07
2023-06-07T11:44:56.027Z,3.08
2023-06-07T11:45:56.080Z,2.89
2023-06-07T11:46:56.114Z,3.32
2023-06-07T11:47:58.817Z,3.44
2023-06-07T11:48:56.120Z,2.74
2023-06-07T11:49:56.081Z,2.82
2023-06-07T11:50:56.039Z,2.70
2023-06-07T11:51:56.052Z,3.34
2023-06-07T11:52:56.054Z,3.32
2023-06-07T11:53:56.008Z,2.45
2023-06-07T11:54:56.017Z,3.22
2023-06-07T11:55:56.022Z,2.83
2023-06-07T11:56:56.093Z,2.52
2023-06-07T11:57:55.985Z,2.62
2023-06-07T11:58:55.998Z,2.75
2023-06-07T11:59:56.058Z,3.41
2023-06-07T12:00:56.039Z,2.61
2023-06-07T12:01:56.155Z,3.02
2023-06-07T12:02:56.053Z,2.95
2023-06-07T12:03:56.092Z,2.53
2023-06-07T12:04:56.007Z,2.43
2023-06-07T12:05:55.963Z,2.89
2023-06-07T12:06:55.942Z,2.76
2023-06-07T12:07:56.946Z,2.53
2023-06-07T12:08:56.004Z,3.16
2023-06-07T12:09:56.399Z,2.59
2023-06-07T12:10:56.118Z,2.68
2023-06-07T12:11:56.395Z,2.54
2023-06-07T12:12:55.942Z,2.89
2023-06-07T12:13:55.891Z,2.93
2023-06-07T12:14:55.896Z,3.05
2023-06-07T12:15:55.953Z,3.32
2023-06-07T12:16:55.956Z,3.33
2023-06-07T12:17:55.909Z,3.11
2023-06-07T12:18:55.877Z,2.81
2023-06-07T12:19:57.679Z,2.91
2023-06-07T12:20:55.970Z,3.02
2023-06-07T12:21:55.890Z,2.49
2023-06-07T12:22:55.936Z,2.92
2023-06-07T12:23:55.955Z,2.88
2023-06-07T12:24:55.826Z,2.75
2023-06-07T12:25:55.845Z,2.71
2023-06-07T12:26:55.861Z,2.74
2023-06-07T12:27:55.843Z,2.35
2023-06-07T12:28:55.787Z,2.83
2023-06-07T12:29:55.796Z,3.34
2023-06-07T12:30:55.819Z,2.81
2023-06-07T12:31:55.808Z,2.74
2023-06-07T12:32:55.799Z,2.53
2023-06-07T12:33:55.753Z,2.98
2023-06-07T12:34:55.793Z,2.67
2023-06-07T12:35:55.756Z,2.75
2023-06-07T12:36:55.736Z,3.23
2023-06-07T12:37:55.734Z,3.00
2023-06-07T12:38:55.798Z,2.95
2023-06-07T12:39:55.778Z,2.85
2023-06-07T12:40:55.753Z,3.28
2023-06-07T12:41:55.732Z,2.64
2023-06-07T12:42:55.737Z,2.81
2023-06-07T12:43:55.763Z,3.35
2023-06-07T12:44:56.109Z,2.59
2023-06-07T12:45:55.690Z,2.58
2023-06-07T12:46:55.754Z,3.17
2023-06-07T12:47:55.764Z,2.99
2023-06-07T12:48:55.657Z,3.40
2023-06-07T12:49:55.698Z,2.32
2023-06-07T12:50:55.688Z,2.96
2023-06-07T12:51:55.690Z,3.12
2023-06-07T12:52:55.679Z,2.85
2023-06-07T12:53:55.686Z,3.15
2023-06-07T12:54:55.617Z,3.30
2023-06-07T12:55:55.677Z,2.81
2023-06-07T12:56:55.677Z,2.97
2023-06-07T12:57:55.653Z,2.33
2023-06-07T12:58:55.618Z,2.61
2023-06-07T12:59:55.603Z,2.84
2023-06-07T13:00:55.641Z,3.08
2023-06-07T13:01:55.911Z,2.40
2023-06-07T13:02:55.644Z,2.99
2023-06-07T13:03:55.696Z,3.16
2023-06-07T13:04:55.558Z,2.88
2023-06-07T13:05:55.884Z,2.74
2023-06-07T13:06:55.575Z,2.91
2023-06-07T13:07:55.504Z,2.61
2023-06-07T13:08:55.593Z,3.09
2023-06-07T13:09:55.577Z,2.67
2023-06-07T13:10:55.566Z,2.68
2023-06-07T13:11:55.520Z,2.72
2023-06-07T13:12:55.492Z,2.66
2023-06-07T13:13:56.441Z,2.58
2023-06-07T13:14:55.589Z,3.49
2023-06-07T13:15:55.513Z,2.65
2023-06-07T13:16:55.542Z,3.12
2023-06-07T13:17:55.609Z,2.95
2023-06-07T13:18:55.503Z,3.27